createdAt,value
2022-08-29T00:00:31.365Z,99.90
2022-08-29T00:03:01.111Z,99.90
2022-08-29T00:05:37.554Z,99.90
2022-08-29T00:08:07.448Z,99.90
2022-08-29T00:10:39.643Z,99.90
2022-08-29T00:13:12.760Z,99.90
2022-08-29T00:15:44.819Z,99.90
2022-08-29T00:18:15.240Z,99.90
2022-08-29T00:20:44.891Z,99.90
2022-08-29T00:23:13.441Z,99.90
2022-08-29T00:25:42.020Z,99.90
2022-08-29T00:28:12.134Z,99.90
2022-08-29T00:30:41.659Z,99.90
2022-08-29T00:33:10.855Z,99.90
2022-08-29T00:35:42.978Z,99.90
2022-08-29T00:38:16.363Z,99.90
2022-08-29T00:40:51.689Z,99.90
2022-08-29T00:43:26.013Z,99.90
2022-08-29T00:46:11.293Z,99.90
2022-08-29T00:48:42.069Z,99.90
2022-08-29T00:51:18.663Z,99.90
2022-08-29T00:53:53.578Z,99.90
2022-08-29T00:56:22.769Z,99.90
2022-08-29T00:58:59.070Z,99.90
2022-08-29T01:01:27.891Z,99.90
2022-08-29T01:03:56.648Z,99.90
2022-08-29T01:06:27.632Z,99.90
2022-08-29T01:08:57.928Z,99.90
2022-08-29T01:11:48.927Z,99.90
2022-08-29T01:14:21.767Z,99.90
2022-08-29T01:16:52.938Z,99.90
2022-08-29T01:19:37.749Z,99.90
2022-08-29T01:22:23.656Z,99.90
2022-08-29T01:24:56.035Z,99.90
2022-08-29T01:27:31.034Z,99.90
2022-08-29T01:30:00.037Z,99.90
2022-08-29T01:32:28.648Z,99.90
2022-08-29T01:34:57.569Z,99.90
2022-08-29T01:37:32.588Z,99.90
2022-08-29T01:40:02.658Z,99.90
2022-08-29T01:42:36.475Z,99.90
2022-08-29T01:45:09.656Z,99.90
2022-08-29T01:47:40.022Z,99.90
2022-08-29T01:50:13.780Z,99.90
2022-08-29T01:52:43.684Z,99.90
2022-08-29T01:55:13.445Z,99.90
2022-08-29T01:57:42.789Z,99.90
2022-08-29T02:00:13.543Z,99.90
2022-08-29T02:02:43.871Z,99.90
2022-08-29T02:05:12.291Z,99.90
2022-08-29T02:07:40.877Z,99.90
2022-08-29T02:10:10.287Z,99.90
2022-08-29T02:12:40.759Z,99.90
2022-08-29T02:15:09.777Z,99.90
2022-08-29T02:17:39.408Z,99.90
2022-08-29T02:20:09.704Z,99.90
2022-08-29T02:22:40.783Z,99.90
2022-08-29T02:25:26.279Z,99.90
2022-08-29T02:27:57.438Z,99.90
2022-08-29T02:30:26.891Z,99.90
2022-08-29T02:32:55.072Z,99.90
2022-08-29T02:35:24.442Z,99.90
2022-08-29T02:37:52.791Z,99.90
2022-08-29T02:40:24.612Z,99.90
2022-08-29T02:43:03.514Z,99.90
2022-08-29T02:45:32.904Z,99.90
2022-08-29T02:48:01.486Z,99.90
2022-08-29T02:50:29.962Z,99.90
2022-08-29T02:52:59.083Z,99.90
2022-08-29T02:55:27.731Z,99.90
2022-08-29T02:57:56.352Z,99.90
2022-08-29T03:00:28.707Z,99.90
2022-08-29T03:02:57.835Z,99.90
2022-08-29T03:05:35.196Z,99.90
2022-08-29T03:08:07.074Z,99.90
2022-08-29T03:10:36.731Z,99.90
2022-08-29T03:13:06.163Z,99.90
2022-08-29T03:15:36.365Z,99.90
2022-08-29T03:18:05.356Z,99.90
2022-08-29T03:20:37.343Z,99.90
2022-08-29T03:23:07.330Z,99.90
2022-08-29T03:25:37.705Z,99.90
2022-08-29T03:28:06.232Z,99.90
2022-08-29T03:30:36.199Z,99.90
2022-08-29T03:33:07.818Z,99.90
2022-08-29T03:35:40.310Z,99.90
2022-08-29T03:38:08.763Z,99.90
2022-08-29T03:40:37.124Z,99.90
2022-08-29T03:43:05.910Z,99.90
2022-08-29T03:45:35.537Z,99.90
2022-08-29T03:48:04.343Z,99.90
2022-08-29T03:50:33.532Z,99.90
2022-08-29T03:53:01.870Z,99.90
2022-08-29T03:55:29.912Z,99.90
2022-08-29T03:57:58.965Z,99.90
2022-08-29T04:00:27.233Z,99.90
2022-08-29T04:02:58.324Z,99.90
2022-08-29T04:05:26.757Z,99.90
2022-08-29T04:07:58.816Z,99.90
2022-08-29T04:10:31.945Z,99.90
2022-08-29T04:13:02.414Z,99.90
2022-08-29T04:15:32.463Z,99.90
2022-08-29T04:18:07.111Z,99.90
2022-08-29T04:20:45.194Z,99.90
2022-08-29T04:23:15.213Z,99.90
2022-08-29T04:25:45.584Z,99.90
2022-08-29T04:28:15.551Z,99.90
2022-08-29T04:30:51.898Z,99.90
2022-08-29T04:33:25.896Z,99.90
2022-08-29T04:35:54.477Z,99.90
2022-08-29T04:38:23.646Z,99.90
2022-08-29T04:40:51.667Z,99.90
2022-08-29T04:43:20.146Z,99.90
2022-08-29T04:45:56.266Z,99.90
2022-08-29T04:48:26.429Z,99.90
2022-08-29T04:50:56.439Z,99.90
2022-08-29T04:53:27.027Z,99.90
2022-08-29T04:55:59.098Z,99.90
2022-08-29T04:58:27.403Z,99.90
2022-08-29T05:00:56.412Z,99.90
2022-08-29T05:03:27.149Z,99.90
2022-08-29T05:06:00.032Z,99.90
2022-08-29T05:08:29.186Z,99.90
2022-08-29T05:10:58.773Z,99.90
2022-08-29T05:13:28.268Z,99.90
2022-08-29T05:15:56.423Z,99.90
2022-08-29T05:18:26.904Z,99.90
2022-08-29T05:20:56.011Z,99.90
2022-08-29T05:23:24.356Z,99.90
2022-08-29T05:25:58.627Z,99.90
2022-08-29T05:28:29.580Z,99.90
2022-08-29T05:30:57.862Z,99.90
2022-08-29T05:33:28.647Z,99.90
2022-08-29T05:35:57.871Z,99.90
2022-08-29T05:38:26.891Z,99.90
2022-08-29T05:40:54.981Z,99.90
2022-08-29T05:43:23.949Z,99.90
2022-08-29T05:46:02.090Z,99.90
2022-08-29T05:48:33.835Z,99.90
2022-08-29T05:51:03.254Z,99.90
2022-08-29T05:53:31.399Z,99.90
2022-08-29T05:55:59.864Z,99.90
2022-08-29T05:58:28.567Z,99.90
2022-08-29T06:00:56.644Z,99.90
2022-08-29T06:03:26.418Z,99.90
2022-08-29T06:05:56.103Z,99.90
2022-08-29T06:08:24.985Z,99.90
2022-08-29T06:10:53.253Z,99.90
2022-08-29T06:13:21.844Z,99.90
2022-08-29T06:15:50.416Z,99.90
2022-08-29T06:18:18.533Z,99.90
2022-08-29T06:20:56.657Z,99.90
2022-08-29T06:23:24.760Z,99.90
2022-08-29T06:25:57.804Z,99.90
2022-08-29T06:28:28.484Z,99.90
2022-08-29T06:30:57.112Z,99.90
2022-08-29T06:33:25.258Z,99.90
2022-08-29T06:35:54.705Z,99.90
2022-08-29T06:38:24.531Z,99.90
2022-08-29T06:40:52.811Z,99.90
2022-08-29T06:43:21.487Z,99.90
2022-08-29T06:45:50.186Z,99.90
2022-08-29T06:48:18.865Z,99.90
2022-08-29T06:50:47.284Z,99.90
2022-08-29T06:53:27.591Z,99.90
2022-08-29T06:56:11.156Z,99.90
2022-08-29T06:58:40.683Z,99.90
2022-08-29T07:01:10.915Z,99.90
2022-08-29T07:03:39.724Z,99.90
2022-08-29T07:06:08.456Z,99.90
2022-08-29T07:08:43.657Z,99.90
2022-08-29T07:11:25.590Z,99.90
2022-08-29T07:13:54.727Z,99.90
2022-08-29T07:16:23.140Z,99.90
2022-08-29T07:18:52.088Z,99.90
2022-08-29T07:21:24.358Z,99.90
2022-08-29T07:23:54.960Z,99.90
2022-08-29T07:26:29.817Z,99.90
2022-08-29T07:29:03.559Z,99.90
2022-08-29T07:31:33.888Z,99.90
2022-08-29T07:34:03.251Z,99.90
2022-08-29T07:36:34.747Z,99.90
2022-08-29T07:39:07.344Z,99.90
2022-08-29T07:41:38.675Z,99.90
2022-08-29T07:44:07.072Z,99.90
2022-08-29T07:46:36.295Z,99.90
2022-08-29T07:49:06.048Z,99.90
2022-08-29T07:51:35.415Z,99.90
2022-08-29T07:54:04.687Z,99.90
2022-08-29T07:56:41.398Z,99.90
2022-08-29T07:59:10.841Z,99.90
2022-08-29T08:01:40.204Z,99.90
2022-08-29T08:04:09.359Z,99.90
2022-08-29T08:06:40.762Z,99.90
2022-08-29T08:09:12.456Z,99.90
2022-08-29T08:11:43.510Z,99.90
2022-08-29T08:14:12.570Z,99.90
2022-08-29T08:16:44.335Z,99.90
2022-08-29T08:19:13.525Z,99.90
2022-08-29T08:21:49.731Z,99.90
2022-08-29T08:24:19.926Z,99.90
2022-08-29T08:26:50.466Z,99.90
2022-08-29T08:29:19.532Z,99.90
2022-08-29T08:31:51.629Z,99.90
2022-08-29T08:34:21.485Z,99.90
2022-08-29T08:36:50.864Z,99.90
2022-08-29T08:39:19.689Z,99.90
2022-08-29T08:41:58.587Z,99.90
2022-08-29T08:44:50.647Z,99.90
2022-08-29T08:47:28.132Z,99.90
2022-08-29T08:50:02.469Z,99.90
2022-08-29T08:52:43.415Z,99.90
2022-08-29T08:55:26.451Z,99.90
2022-08-29T08:58:11.342Z,99.90
2022-08-29T09:00:47.884Z,99.90
2022-08-29T09:04:05.713Z,99.90
2022-08-29T09:06:54.460Z,99.90
2022-08-29T09:09:42.467Z,99.90
2022-08-29T09:12:28.767Z,99.90
2022-08-29T09:15:13.762Z,99.90
2022-08-29T09:17:50.175Z,99.90
2022-08-29T09:20:26.230Z,99.90
2022-08-29T09:23:02.631Z,99.90
2022-08-29T09:25:36.532Z,99.90
2022-08-29T09:28:09.081Z,99.90
2022-08-29T09:30:43.165Z,99.90
2022-08-29T09:33:15.428Z,99.90
2022-08-29T09:35:47.880Z,99.90
2022-08-29T09:38:24.126Z,99.90
2022-08-29T09:40:58.439Z,99.90
2022-08-29T09:43:34.572Z,99.90
2022-08-29T09:46:13.678Z,99.90
2022-08-29T09:48:45.459Z,99.90
2022-08-29T09:51:25.000Z,99.90
2022-08-29T09:53:54.795Z,99.90
2022-08-29T09:56:29.292Z,99.90
2022-08-29T09:59:12.356Z,99.90
2022-08-29T10:01:42.081Z,99.90
2022-08-29T10:04:11.024Z,99.90
2022-08-29T10:06:46.153Z,99.90
2022-08-29T10:09:30.485Z,99.90
2022-08-29T10:12:04.894Z,99.90
2022-08-29T10:14:42.003Z,99.90
2022-08-29T10:17:47.712Z,99.90
2022-08-29T10:20:16.578Z,99.90
2022-08-29T10:22:53.181Z,99.90
2022-08-29T10:25:35.924Z,99.90
2022-08-29T10:28:17.377Z,99.90
2022-08-29T10:30:58.680Z,99.90
2022-08-29T10:33:49.716Z,99.90
2022-08-29T10:36:26.912Z,99.90
2022-08-29T10:39:03.796Z,99.90
2022-08-29T10:41:40.516Z,99.90
2022-08-29T10:44:26.624Z,99.90
2022-08-29T10:47:23.891Z,99.90
2022-08-29T10:50:17.188Z,99.90
2022-08-29T10:53:08.182Z,99.90
2022-08-29T10:56:04.505Z,99.90
2022-08-29T10:58:52.119Z,99.90
2022-08-29T11:01:28.363Z,99.90
2022-08-29T11:04:17.553Z,99.90
2022-08-29T11:06:57.037Z,99.90
2022-08-29T11:09:31.965Z,99.90
2022-08-29T11:12:08.972Z,99.90
2022-08-29T11:14:44.881Z,99.90
2022-08-29T11:17:18.203Z,99.90
2022-08-29T11:20:02.263Z,99.90
2022-08-29T11:22:41.434Z,99.90
2022-08-29T11:25:15.869Z,99.90
2022-08-29T11:27:57.272Z,98.40
2022-08-29T11:30:41.055Z,97.60
2022-08-29T11:33:25.287Z,97.10
2022-08-29T11:36:25.936Z,95.30
2022-08-29T11:39:35.949Z,94.30
2022-08-29T11:42:09.446Z,93.40
2022-08-29T11:44:41.765Z,92.10
2022-08-29T11:47:41.039Z,90.80
2022-08-29T11:50:31.027Z,90.10
2022-08-29T11:53:10.591Z,87.80
2022-08-29T11:55:44.411Z,87.80
2022-08-29T11:58:46.723Z,86.80
2022-08-29T12:02:00.060Z,84.00
2022-08-29T12:04:55.834Z,81.70
2022-08-29T12:07:37.482Z,80.20
2022-08-29T12:10:10.465Z,78.50
2022-08-29T12:12:58.981Z,76.90
2022-08-29T12:16:07.695Z,75.10
2022-08-29T12:18:47.666Z,74.50
2022-08-29T12:21:49.510Z,73.70
2022-08-29T12:24:57.300Z,71.20
2022-08-29T12:28:03.929Z,70.40
2022-08-29T12:30:42.974Z,70.20
2022-08-29T12:33:36.187Z,69.10
2022-08-29T12:36:25.921Z,68.30
2022-08-29T12:39:06.066Z,67.20
2022-08-29T12:41:47.092Z,65.60
2022-08-29T12:44:25.580Z,66.20
2022-08-29T12:47:03.528Z,65.20
2022-08-29T12:49:40.866Z,65.30
2022-08-29T12:52:24.597Z,64.70
2022-08-29T12:54:56.601Z,64.00
2022-08-29T12:57:36.085Z,63.90
2022-08-29T13:00:12.635Z,62.50
2022-08-29T13:02:40.694Z,62.50
2022-08-29T13:05:20.063Z,62.50
2022-08-29T13:07:55.223Z,63.60
2022-08-29T13:10:23.281Z,65.00
2022-08-29T13:12:51.404Z,63.90
2022-08-29T13:15:25.864Z,64.50
2022-08-29T13:17:55.745Z,64.00
2022-08-29T13:20:48.067Z,65.30
2022-08-29T13:23:26.579Z,65.10
2022-08-29T13:26:00.097Z,64.90
2022-08-29T13:28:34.726Z,64.60
2022-08-29T13:31:25.782Z,63.10
2022-08-29T13:34:20.931Z,62.30
2022-08-29T13:37:01.598Z,62.10
2022-08-29T13:39:41.848Z,61.30
2022-08-29T13:42:31.430Z,61.30
2022-08-29T13:45:20.896Z,61.30
2022-08-29T13:48:18.852Z,60.50
2022-08-29T13:53:21.246Z,60.70
2022-08-29T13:55:49.450Z,60.90
2022-08-29T13:58:21.769Z,60.40
2022-08-29T14:03:56.655Z,59.90
2022-08-29T14:06:28.268Z,60.90
2022-08-29T14:08:59.854Z,60.30
2022-08-29T14:11:28.457Z,60.90
2022-08-29T14:13:56.976Z,60.80
2022-08-29T14:16:27.711Z,60.90
2022-08-29T14:18:55.934Z,60.80
2022-08-29T14:21:24.714Z,61.90
2022-08-29T14:23:54.648Z,61.30
2022-08-29T14:26:23.260Z,61.70
2022-08-29T14:28:52.841Z,62.30
2022-08-29T14:31:21.102Z,61.80
2022-08-29T14:33:51.505Z,62.20
2022-08-29T14:36:19.930Z,61.60
2022-08-29T14:38:55.936Z,61.70
2022-08-29T14:41:25.632Z,61.70
2022-08-29T14:43:54.306Z,61.70
2022-08-29T14:46:22.961Z,61.70
2022-08-29T14:48:53.388Z,61.70
2022-08-29T14:51:22.649Z,62.60
2022-08-29T14:53:54.238Z,63.40
2022-08-29T14:56:47.508Z,63.20
2022-08-29T14:59:17.527Z,64.40
2022-08-29T15:01:51.070Z,64.60
2022-08-29T15:04:35.811Z,65.40
2022-08-29T15:07:12.500Z,67.50
2022-08-29T15:09:43.874Z,67.50
2022-08-29T15:12:14.488Z,68.20
2022-08-29T15:14:42.800Z,68.70
2022-08-29T15:17:11.850Z,70.00
2022-08-29T15:20:31.465Z,70.10
2022-08-29T15:22:31.187Z,70.60
2022-08-29T15:25:00.089Z,71.20
2022-08-29T15:27:28.759Z,71.50
2022-08-29T15:29:57.387Z,71.90
2022-08-29T15:32:27.014Z,72.50
2022-08-29T15:34:56.713Z,72.50
2022-08-29T15:37:26.679Z,73.10
2022-08-29T15:39:55.037Z,73.40
2022-08-29T15:42:29.815Z,74.50
2022-08-29T15:45:02.375Z,73.90
2022-08-29T15:47:35.948Z,74.80
2022-08-29T15:50:09.868Z,74.70
2022-08-29T15:52:39.717Z,75.10
2022-08-29T15:55:09.130Z,75.60
2022-08-29T15:57:51.098Z,75.80
2022-08-29T16:00:29.898Z,76.50
2022-08-29T16:03:02.930Z,76.80
2022-08-29T16:05:34.198Z,77.20
2022-08-29T16:08:03.733Z,77.00
2022-08-29T16:10:33.108Z,77.10
2022-08-29T16:13:01.794Z,77.80
2022-08-29T16:15:31.535Z,77.50
2022-08-29T16:18:01.097Z,77.50
2022-08-29T16:20:29.968Z,78.00
2022-08-29T16:23:01.219Z,78.00
2022-08-29T16:25:32.063Z,78.40
2022-08-29T16:28:01.284Z,78.40
2022-08-29T16:30:32.567Z,78.50
2022-08-29T16:33:01.586Z,78.60
2022-08-29T16:35:30.954Z,78.80
2022-08-29T16:38:03.027Z,79.20
2022-08-29T16:40:42.118Z,79.00
2022-08-29T16:43:10.999Z,79.40
2022-08-29T16:45:39.175Z,79.60
2022-08-29T16:48:15.543Z,80.40
2022-08-29T16:50:44.940Z,79.90
2022-08-29T16:53:14.491Z,80.30
2022-08-29T16:55:43.389Z,80.60
2022-08-29T16:58:29.023Z,80.70
2022-08-29T17:00:58.041Z,81.00
2022-08-29T17:03:26.257Z,80.50
2022-08-29T17:05:54.701Z,80.70
2022-08-29T17:08:23.942Z,81.20
2022-08-29T17:10:51.497Z,81.10
2022-08-29T17:13:19.034Z,81.10
2022-08-29T17:15:46.323Z,81.10
2022-08-29T17:18:14.952Z,80.90
2022-08-29T17:20:46.249Z,81.20
2022-08-29T17:23:16.138Z,81.60
2022-08-29T17:25:45.828Z,81.60
2022-08-29T17:28:18.056Z,82.30
2022-08-29T17:30:47.762Z,83.30
2022-08-29T17:33:16.947Z,82.40
2022-08-29T17:35:46.021Z,82.80
2022-08-29T17:38:15.402Z,83.00
2022-08-29T17:40:46.206Z,83.30
2022-08-29T17:43:18.306Z,83.30
2022-08-29T17:45:47.435Z,83.20
2022-08-29T17:48:15.836Z,83.70
2022-08-29T17:50:44.957Z,84.10
2022-08-29T17:53:13.101Z,84.50
2022-08-29T17:55:42.071Z,84.20
2022-08-29T17:58:12.476Z,84.60
2022-08-29T18:00:41.952Z,85.50
2022-08-29T18:03:10.823Z,85.40
2022-08-29T18:05:39.386Z,85.60
2022-08-29T18:08:07.996Z,86.20
2022-08-29T18:10:37.235Z,86.80
2022-08-29T18:13:06.299Z,87.60
2022-08-29T18:15:36.319Z,88.90
2022-08-29T18:18:06.651Z,89.50
2022-08-29T18:20:34.811Z,90.10
2022-08-29T18:23:03.718Z,90.30
2022-08-29T18:25:32.522Z,90.70
2022-08-29T18:28:00.825Z,91.10
2022-08-29T18:30:29.678Z,91.40
2022-08-29T18:32:59.171Z,92.00
2022-08-29T18:35:27.893Z,92.00
2022-08-29T18:37:56.059Z,92.50
2022-08-29T18:40:25.359Z,92.70
2022-08-29T18:42:53.674Z,92.80
2022-08-29T18:45:21.914Z,93.10
2022-08-29T18:47:50.157Z,93.20
2022-08-29T18:50:37.949Z,93.40
2022-08-29T18:53:11.759Z,93.70
2022-08-29T18:55:44.942Z,93.80
2022-08-29T18:58:19.101Z,93.90
2022-08-29T19:00:48.362Z,94.20
2022-08-29T19:03:17.082Z,94.30
2022-08-29T19:05:49.455Z,94.30
2022-08-29T19:08:20.584Z,94.30
2022-08-29T19:10:49.745Z,94.40
2022-08-29T19:15:00.817Z,94.80
2022-08-29T19:16:13.298Z,94.80
2022-08-29T19:18:41.973Z,95.20
2022-08-29T19:21:10.788Z,95.20
2022-08-29T19:23:43.987Z,95.20
2022-08-29T19:26:20.518Z,95.30
2022-08-29T19:28:49.652Z,95.40
2022-08-29T19:31:18.348Z,95.50
2022-08-29T19:33:48.504Z,95.60
2022-08-29T19:36:18.420Z,95.70
2022-08-29T19:38:47.849Z,96.10
2022-08-29T19:41:16.332Z,96.60
2022-08-29T19:43:45.845Z,96.70
2022-08-29T19:46:19.951Z,96.70
2022-08-29T19:48:51.213Z,96.80
2022-08-29T19:51:25.579Z,97.00
2022-08-29T19:53:56.819Z,97.20
2022-08-29T19:56:26.636Z,97.40
2022-08-29T19:58:55.021Z,97.60
2022-08-29T20:01:24.075Z,97.80
2022-08-29T20:03:52.972Z,97.80
2022-08-29T20:06:23.664Z,98.00
2022-08-29T20:08:52.363Z,98.30
2022-08-29T20:11:23.960Z,98.60
2022-08-29T20:13:57.473Z,98.80
2022-08-29T20:16:32.275Z,99.20
2022-08-29T20:19:03.848Z,99.40
2022-08-29T20:21:36.240Z,99.60
2022-08-29T20:24:05.975Z,99.50
2022-08-29T20:26:37.816Z,99.50
2022-08-29T20:29:12.425Z,99.50
2022-08-29T20:31:41.664Z,99.80
2022-08-29T20:34:10.703Z,99.70
2022-08-29T20:36:58.950Z,99.90
2022-08-29T20:39:27.407Z,99.90
2022-08-29T20:41:59.271Z,99.90
2022-08-29T20:44:34.031Z,99.90
2022-08-29T20:47:02.624Z,99.90
2022-08-29T20:49:31.358Z,99.90
2022-08-29T20:52:02.222Z,99.90
2022-08-29T20:54:32.281Z,99.90
2022-08-29T20:57:00.805Z,99.90
2022-08-29T20:59:34.236Z,99.90
2022-08-29T21:02:05.165Z,99.90
2022-08-29T21:04:50.903Z,99.90
2022-08-29T21:07:21.588Z,99.90
2022-08-29T21:09:51.931Z,99.90
2022-08-29T21:12:21.566Z,99.90
2022-08-29T21:14:55.703Z,99.90
2022-08-29T21:17:24.577Z,99.90
2022-08-29T21:19:52.823Z,99.90
2022-08-29T21:22:24.990Z,99.90
2022-08-29T21:24:55.690Z,99.90
2022-08-29T21:27:23.828Z,99.90
2022-08-29T21:29:56.053Z,99.90
2022-08-29T21:32:24.203Z,99.90
2022-08-29T21:34:52.937Z,99.90
2022-08-29T21:37:23.085Z,99.90
2022-08-29T21:39:51.213Z,99.90
2022-08-29T21:42:19.992Z,99.90
2022-08-29T21:44:48.235Z,99.90
2022-08-29T21:47:17.970Z,99.90
2022-08-29T21:49:48.564Z,99.90
2022-08-29T21:52:16.807Z,99.90
2022-08-29T21:54:49.128Z,99.90
2022-08-29T21:57:39.619Z,99.90
2022-08-29T22:00:10.818Z,99.90
2022-08-29T22:02:40.167Z,99.90
2022-08-29T22:05:09.477Z,99.90
2022-08-29T22:07:39.963Z,99.90
2022-08-29T22:10:12.279Z,99.90
2022-08-29T22:12:41.207Z,99.90
2022-08-29T22:15:27.990Z,99.90
2022-08-29T22:17:56.680Z,99.90
2022-08-29T22:20:24.864Z,99.90
2022-08-29T22:22:53.842Z,99.90
2022-08-29T22:25:24.533Z,99.90
2022-08-29T22:27:52.635Z,99.90
2022-08-29T22:30:21.014Z,99.90
2022-08-29T22:32:53.022Z,99.90
2022-08-29T22:35:23.279Z,99.90
2022-08-29T22:37:54.386Z,99.90
2022-08-29T22:40:24.623Z,99.90
2022-08-29T22:42:53.087Z,99.90
2022-08-29T22:45:21.805Z,99.90
2022-08-29T22:47:49.940Z,99.90
2022-08-29T22:50:22.504Z,99.90
2022-08-29T22:52:52.221Z,99.90
2022-08-29T22:57:50.445Z,99.90
2022-08-29T23:00:22.255Z,99.90
2022-08-29T23:02:52.081Z,99.90
2022-08-29T23:05:21.883Z,99.90
2022-08-29T23:07:50.841Z,99.90
2022-08-29T23:10:22.297Z,99.90
2022-08-29T23:12:51.839Z,99.90
2022-08-29T23:15:21.016Z,99.90
2022-08-29T23:17:49.163Z,99.90
2022-08-29T23:20:19.421Z,99.90
2022-08-29T23:22:48.721Z,99.90
2022-08-29T23:25:18.490Z,99.90
2022-08-29T23:27:46.647Z,99.90
2022-08-29T23:30:16.147Z,99.90
2022-08-29T23:32:45.084Z,99.90
2022-08-29T23:35:13.317Z,99.90
2022-08-29T23:37:41.931Z,99.90
2022-08-29T23:40:11.130Z,99.90
2022-08-29T23:42:40.233Z,99.90
2022-08-29T23:45:11.021Z,99.90
2022-08-29T23:47:41.227Z,99.90
2022-08-29T23:50:12.948Z,99.90
2022-08-29T23:52:43.923Z,99.90
2022-08-29T23:55:16.388Z,99.90
2022-08-29T23:57:45.582Z,99.90
